sensor_id;sensor_type;location;lat;lon;timestamp;P1;durP1;ratioP1;P2;durP2;ratioP2
52798;SDS011;38667;42.872;74.622;2022-11-22T00:01:25;18.92;;;11.75;;
52798;SDS011;38667;42.872;74.622;2022-11-22T00:03:51;19.35;;;9.48;;
52798;SDS011;38667;42.872;74.622;2022-11-22T00:06:17;19.50;;;11.02;;
52798;SDS011;38667;42.872;74.622;2022-11-22T00:08:43;15.30;;;9.63;;
52798;SDS011;38667;42.872;74.622;2022-11-22T00:11:11;15.90;;;9.85;;
52798;SDS011;38667;42.872;74.622;2022-11-22T00:13:38;22.60;;;11.88;;
52798;SDS011;38667;42.872;74.622;2022-11-22T00:16:04;19.73;;;11.55;;
52798;SDS011;38667;42.872;74.622;2022-11-22T00:18:30;15.45;;;10.05;;
52798;SDS011;38667;42.872;74.622;2022-11-22T00:21:00;15.43;;;9.70;;
52798;SDS011;38667;42.872;74.622;2022-11-22T00:23:29;13.98;;;8.88;;
52798;SDS011;38667;42.872;74.622;2022-11-22T00:25:56;14.68;;;9.68;;
52798;SDS011;38667;42.872;74.622;2022-11-22T00:28:23;20.65;;;9.10;;
52798;SDS011;38667;42.872;74.622;2022-11-22T00:30:50;13.15;;;8.30;;
52798;SDS011;38667;42.872;74.622;2022-11-22T00:33:16;17.15;;;9.98;;
52798;SDS011;38667;42.872;74.622;2022-11-22T00:35:43;14.30;;;8.75;;
52798;SDS011;38667;42.872;74.622;2022-11-22T00:38:10;14.55;;;8.10;;
52798;SDS011;38667;42.872;74.622;2022-11-22T00:40:36;16.23;;;9.35;;
52798;SDS011;38667;42.872;74.622;2022-11-22T00:43:02;14.15;;;8.93;;
52798;SDS011;38667;42.872;74.622;2022-11-22T00:45:30;13.52;;;8.18;;
52798;SDS011;38667;42.872;74.622;2022-11-22T00:47:56;14.07;;;8.70;;
52798;SDS011;38667;42.872;74.622;2022-11-22T00:50:23;15.32;;;9.07;;
52798;SDS011;38667;42.872;74.622;2022-11-22T00:52:49;12.88;;;8.82;;
52798;SDS011;38667;42.872;74.622;2022-11-22T00:55:15;14.40;;;8.98;;
52798;SDS011;38667;42.872;74.622;2022-11-22T00:57:42;13.05;;;8.77;;
52798;SDS011;38667;42.872;74.622;2022-11-22T01:00:08;13.45;;;8.88;;
52798;SDS011;38667;42.872;74.622;2022-11-22T01:02:37;13.52;;;9.27;;
52798;SDS011;38667;42.872;74.622;2022-11-22T01:05:03;12.90;;;8.93;;
52798;SDS011;38667;42.872;74.622;2022-11-22T01:07:30;14.30;;;8.57;;
52798;SDS011;38667;42.872;74.622;2022-11-22T01:09:56;13.20;;;8.57;;
52798;SDS011;38667;42.872;74.622;2022-11-22T01:12:23;14.90;;;8.95;;
52798;SDS011;38667;42.872;74.622;2022-11-22T01:14:49;16.23;;;9.10;;
52798;SDS011;38667;42.872;74.622;2022-11-22T01:17:15;13.52;;;8.75;;
52798;SDS011;38667;42.872;74.622;2022-11-22T01:19:43;13.20;;;9.18;;
52798;SDS011;38667;42.872;74.622;2022-11-22T01:22:10;15.63;;;9.18;;
52798;SDS011;38667;42.872;74.622;2022-11-22T01:24:36;13.05;;;8.88;;
52798;SDS011;38667;42.872;74.622;2022-11-22T01:27:02;12.95;;;8.77;;
52798;SDS011;38667;42.872;74.622;2022-11-22T01:29:28;13.30;;;9.02;;
52798;SDS011;38667;42.872;74.622;2022-11-22T01:31:55;15.70;;;8.85;;
52798;SDS011;38667;42.872;74.622;2022-11-22T01:34:21;12.90;;;9.13;;
52798;SDS011;38667;42.872;74.622;2022-11-22T01:36:49;17.55;;;9.45;;
52798;SDS011;38667;42.872;74.622;2022-11-22T01:39:15;14.57;;;8.40;;
52798;SDS011;38667;42.872;74.622;2022-11-22T01:41:42;19.10;;;9.25;;
52798;SDS011;38667;42.872;74.622;2022-11-22T01:44:23;13.80;;;8.95;;
52798;SDS011;38667;42.872;74.622;2022-11-22T01:46:51;14.05;;;9.02;;
52798;SDS011;38667;42.872;74.622;2022-11-22T01:49:22;12.20;;;8.70;;
52798;SDS011;38667;42.872;74.622;2022-11-22T01:51:54;14.88;;;8.77;;
52798;SDS011;38667;42.872;74.622;2022-11-22T01:54:23;15.02;;;9.77;;
52798;SDS011;38667;42.872;74.622;2022-11-22T01:56:52;15.43;;;9.52;;
52798;SDS011;38667;42.872;74.622;2022-11-22T01:59:21;15.02;;;9.18;;
52798;SDS011;38667;42.872;74.622;2022-11-22T02:01:50;15.23;;;9.15;;
52798;SDS011;38667;42.872;74.622;2022-11-22T02:04:18;16.45;;;8.68;;
52798;SDS011;38667;42.872;74.622;2022-11-22T02:06:47;13.52;;;8.27;;
52798;SDS011;38667;42.872;74.622;2022-11-22T02:09:19;12.88;;;8.68;;
52798;SDS011;38667;42.872;74.622;2022-11-22T02:11:47;14.00;;;8.60;;
52798;SDS011;38667;42.872;74.622;2022-11-22T02:14:15;13.70;;;8.80;;
52798;SDS011;38667;42.872;74.622;2022-11-22T02:16:44;17.10;;;9.48;;
52798;SDS011;38667;42.872;74.622;2022-11-22T02:19:12;15.65;;;8.82;;
52798;SDS011;38667;42.872;74.622;2022-11-22T02:21:43;16.77;;;9.55;;
52798;SDS011;38667;42.872;74.622;2022-11-22T02:24:15;14.82;;;9.80;;
52798;SDS011;38667;42.872;74.622;2022-11-22T02:26:51;18.15;;;9.80;;
52798;SDS011;38667;42.872;74.622;2022-11-22T02:29:17;12.77;;;8.93;;
52798;SDS011;38667;42.872;74.622;2022-11-22T02:31:45;18.70;;;10.23;;
52798;SDS011;38667;42.872;74.622;2022-11-22T02:34:12;17.02;;;10.05;;
52798;SDS011;38667;42.872;74.622;2022-11-22T02:36:40;14.75;;;10.18;;
52798;SDS011;38667;42.872;74.622;2022-11-22T02:39:09;20.38;;;10.77;;
52798;SDS011;38667;42.872;74.622;2022-11-22T02:41:39;22.83;;;10.85;;
52798;SDS011;38667;42.872;74.622;2022-11-22T02:44:07;21.58;;;10.55;;
52798;SDS011;38667;42.872;74.622;2022-11-22T02:46:35;18.92;;;10.93;;
52798;SDS011;38667;42.872;74.622;2022-11-22T02:49:09;20.55;;;11.32;;
52798;SDS011;38667;42.872;74.622;2022-11-22T02:51:36;21.50;;;11.93;;
52798;SDS011;38667;42.872;74.622;2022-11-22T02:54:02;26.85;;;14.43;;
52798;SDS011;38667;42.872;74.622;2022-11-22T02:56:29;28.65;;;16.40;;
52798;SDS011;38667;42.872;74.622;2022-11-22T02:58:56;34.40;;;16.58;;
52798;SDS011;38667;42.872;74.622;2022-11-22T03:01:23;37.15;;;17.30;;
52798;SDS011;38667;42.872;74.622;2022-11-22T03:03:50;33.72;;;18.00;;
52798;SDS011;38667;42.872;74.622;2022-11-22T03:06:16;39.20;;;20.33;;
52798;SDS011;38667;42.872;74.622;2022-11-22T03:08:42;50.47;;;21.75;;
52798;SDS011;38667;42.872;74.622;2022-11-22T03:11:09;41.33;;;20.52;;
52798;SDS011;38667;42.872;74.622;2022-11-22T03:13:35;26.83;;;16.15;;
52798;SDS011;38667;42.872;74.622;2022-11-22T03:16:01;26.20;;;15.93;;
52798;SDS011;38667;42.872;74.622;2022-11-22T03:18:29;27.48;;;16.02;;
52798;SDS011;38667;42.872;74.622;2022-11-22T03:21:00;25.10;;;15.13;;
52798;SDS011;38667;42.872;74.622;2022-11-22T03:23:27;22.80;;;14.27;;
52798;SDS011;38667;42.872;74.622;2022-11-22T03:25:54;25.30;;;14.95;;
52798;SDS011;38667;42.872;74.622;2022-11-22T03:28:20;24.55;;;13.75;;
52798;SDS011;38667;42.872;74.622;2022-11-22T03:30:47;22.85;;;13.45;;
52798;SDS011;38667;42.872;74.622;2022-11-22T03:33:13;23.52;;;14.30;;
52798;SDS011;38667;42.872;74.622;2022-11-22T03:35:41;24.83;;;15.05;;
52798;SDS011;38667;42.872;74.622;2022-11-22T03:38:07;25.30;;;14.60;;
52798;SDS011;38667;42.872;74.622;2022-11-22T03:40:34;26.10;;;14.88;;
52798;SDS011;38667;42.872;74.622;2022-11-22T03:43:01;24.73;;;14.57;;
52798;SDS011;38667;42.872;74.622;2022-11-22T03:45:28;24.45;;;14.02;;
52798;SDS011;38667;42.872;74.622;2022-11-22T03:47:54;24.60;;;14.52;;
52798;SDS011;38667;42.872;74.622;2022-11-22T03:50:21;23.70;;;14.63;;
52798;SDS011;38667;42.872;74.622;2022-11-22T03:52:49;23.95;;;14.20;;
52798;SDS011;38667;42.872;74.622;2022-11-22T03:55:15;28.02;;;14.35;;
52798;SDS011;38667;42.872;74.622;2022-11-22T03:57:42;24.08;;;15.70;;
52798;SDS011;38667;42.872;74.622;2022-11-22T04:00:09;24.75;;;15.13;;
52798;SDS011;38667;42.872;74.622;2022-11-22T04:02:36;22.83;;;14.10;;
52798;SDS011;38667;42.872;74.622;2022-11-22T04:05:03;25.50;;;15.55;;
52798;SDS011;38667;42.872;74.622;2022-11-22T04:07:29;22.52;;;14.38;;
52798;SDS011;38667;42.872;74.622;2022-11-22T04:09:57;22.75;;;14.38;;
52798;SDS011;38667;42.872;74.622;2022-11-22T04:12:23;22.92;;;14.10;;
52798;SDS011;38667;42.872;74.622;2022-11-22T04:14:50;22.90;;;14.45;;
52798;SDS011;38667;42.872;74.622;2022-11-22T04:17:16;21.13;;;14.05;;
52798;SDS011;38667;42.872;74.622;2022-11-22T04:19:42;21.40;;;14.50;;
52798;SDS011;38667;42.872;74.622;2022-11-22T04:22:09;25.40;;;15.32;;
52798;SDS011;38667;42.872;74.622;2022-11-22T04:24:35;23.10;;;14.75;;
52798;SDS011;38667;42.872;74.622;2022-11-22T04:27:03;24.17;;;15.32;;
52798;SDS011;38667;42.872;74.622;2022-11-22T04:29:29;23.80;;;14.65;;
52798;SDS011;38667;42.872;74.622;2022-11-22T04:31:55;24.15;;;15.70;;
52798;SDS011;38667;42.872;74.622;2022-11-22T04:34:22;26.25;;;17.00;;
52798;SDS011;38667;42.872;74.622;2022-11-22T04:36:48;24.40;;;16.27;;
52798;SDS011;38667;42.872;74.622;2022-11-22T04:39:15;28.98;;;16.85;;
52798;SDS011;38667;42.872;74.622;2022-11-22T04:41:41;24.88;;;15.57;;
52798;SDS011;38667;42.872;74.622;2022-11-22T04:44:09;26.67;;;16.48;;
52798;SDS011;38667;42.872;74.622;2022-11-22T04:46:37;26.80;;;16.45;;
52798;SDS011;38667;42.872;74.622;2022-11-22T04:49:03;26.02;;;16.33;;
52798;SDS011;38667;42.872;74.622;2022-11-22T04:51:29;24.35;;;16.65;;
52798;SDS011;38667;42.872;74.622;2022-11-22T04:53:56;31.90;;;18.17;;
52798;SDS011;38667;42.872;74.622;2022-11-22T04:56:22;31.27;;;18.20;;
52798;SDS011;38667;42.872;74.622;2022-11-22T04:58:48;30.55;;;19.10;;
52798;SDS011;38667;42.872;74.622;2022-11-22T05:01:16;28.35;;;18.13;;
52798;SDS011;38667;42.872;74.622;2022-11-22T05:03:42;32.97;;;18.92;;
52798;SDS011;38667;42.872;74.622;2022-11-22T05:06:09;27.67;;;17.80;;
52798;SDS011;38667;42.872;74.622;2022-11-22T05:08:38;29.65;;;17.20;;
52798;SDS011;38667;42.872;74.622;2022-11-22T05:11:04;26.23;;;15.57;;
52798;SDS011;38667;42.872;74.622;2022-11-22T05:22:41;24.45;;;14.98;;
52798;SDS011;38667;42.872;74.622;2022-11-22T05:25:07;26.20;;;15.38;;
52798;SDS011;38667;42.872;74.622;2022-11-22T05:27:34;25.65;;;15.30;;
52798;SDS011;38667;42.872;74.622;2022-11-22T05:30:00;24.38;;;14.77;;
52798;SDS011;38667;42.872;74.622;2022-11-22T05:32:28;27.23;;;15.45;;
52798;SDS011;38667;42.872;74.622;2022-11-22T05:34:54;22.63;;;15.35;;
52798;SDS011;38667;42.872;74.622;2022-11-22T05:37:21;24.92;;;14.77;;
52798;SDS011;38667;42.872;74.622;2022-11-22T05:39:49;25.55;;;14.75;;
52798;SDS011;38667;42.872;74.622;2022-11-22T05:42:15;25.27;;;14.38;;
52798;SDS011;38667;42.872;74.622;2022-11-22T05:44:42;26.48;;;15.05;;
52798;SDS011;38667;42.872;74.622;2022-11-22T05:47:08;25.60;;;15.30;;
52798;SDS011;38667;42.872;74.622;2022-11-22T05:49:35;29.27;;;16.45;;
52798;SDS011;38667;42.872;74.622;2022-11-22T05:52:02;28.77;;;18.15;;
52798;SDS011;38667;42.872;74.622;2022-11-22T05:54:28;29.02;;;17.73;;
52798;SDS011;38667;42.872;74.622;2022-11-22T05:56:56;29.58;;;17.15;;
52798;SDS011;38667;42.872;74.622;2022-11-22T05:59:22;30.33;;;17.50;;
52798;SDS011;38667;42.872;74.622;2022-11-22T06:01:49;28.05;;;18.17;;
52798;SDS011;38667;42.872;74.622;2022-11-22T06:04:15;33.88;;;18.70;;
52798;SDS011;38667;42.872;74.622;2022-11-22T06:06:41;32.30;;;18.90;;
52798;SDS011;38667;42.872;74.622;2022-11-22T06:09:10;34.85;;;20.92;;
52798;SDS011;38667;42.872;74.622;2022-11-22T06:11:36;36.58;;;19.85;;
52798;SDS011;38667;42.872;74.622;2022-11-22T06:14:07;35.28;;;20.27;;
52798;SDS011;38667;42.872;74.622;2022-11-22T06:16:33;33.38;;;21.17;;
52798;SDS011;38667;42.872;74.622;2022-11-22T06:18:59;31.27;;;19.90;;
52798;SDS011;38667;42.872;74.622;2022-11-22T06:21:26;33.58;;;21.25;;
52798;SDS011;38667;42.872;74.622;2022-11-22T06:23:52;38.30;;;21.65;;
52798;SDS011;38667;42.872;74.622;2022-11-22T06:26:19;32.35;;;19.45;;
52798;SDS011;38667;42.872;74.622;2022-11-22T06:28:46;31.52;;;19.67;;
52798;SDS011;38667;42.872;74.622;2022-11-22T06:31:16;32.90;;;20.45;;
52798;SDS011;38667;42.872;74.622;2022-11-22T06:33:43;33.72;;;20.92;;
52798;SDS011;38667;42.872;74.622;2022-11-22T06:36:10;34.53;;;21.13;;
52798;SDS011;38667;42.872;74.622;2022-11-22T06:38:38;36.38;;;21.85;;
52798;SDS011;38667;42.872;74.622;2022-11-22T06:41:06;34.17;;;21.20;;
52798;SDS011;38667;42.872;74.622;2022-11-22T06:43:34;33.92;;;21.15;;
52798;SDS011;38667;42.872;74.622;2022-11-22T06:46:02;31.13;;;19.75;;
52798;SDS011;38667;42.872;74.622;2022-11-22T06:48:32;31.95;;;20.98;;
52798;SDS011;38667;42.872;74.622;2022-11-22T06:51:00;37.13;;;21.55;;
52798;SDS011;38667;42.872;74.622;2022-11-22T06:53:27;32.40;;;20.98;;
52798;SDS011;38667;42.872;74.622;2022-11-22T06:55:57;32.88;;;19.77;;
52798;SDS011;38667;42.872;74.622;2022-11-22T06:58:25;31.60;;;19.42;;
52798;SDS011;38667;42.872;74.622;2022-11-22T07:00:51;33.38;;;19.42;;
52798;SDS011;38667;42.872;74.622;2022-11-22T07:03:18;34.92;;;20.48;;
52798;SDS011;38667;42.872;74.622;2022-11-22T07:05:50;41.55;;;21.75;;
52798;SDS011;38667;42.872;74.622;2022-11-22T07:08:16;40.00;;;22.08;;
52798;SDS011;38667;42.872;74.622;2022-11-22T07:10:43;30.30;;;19.35;;
52798;SDS011;38667;42.872;74.622;2022-11-22T07:13:09;35.55;;;19.35;;
52798;SDS011;38667;42.872;74.622;2022-11-22T07:15:35;32.65;;;20.75;;
52798;SDS011;38667;42.872;74.622;2022-11-22T07:18:01;31.85;;;19.50;;
52798;SDS011;38667;42.872;74.622;2022-11-22T07:20:28;35.08;;;20.08;;
52798;SDS011;38667;42.872;74.622;2022-11-22T07:22:56;28.90;;;19.52;;
52798;SDS011;38667;42.872;74.622;2022-11-22T07:25:22;28.88;;;18.70;;
52798;SDS011;38667;42.872;74.622;2022-11-22T07:27:50;34.00;;;19.98;;
52798;SDS011;38667;42.872;74.622;2022-11-22T07:30:17;34.90;;;22.35;;
52798;SDS011;38667;42.872;74.622;2022-11-22T07:32:45;38.65;;;23.38;;
52798;SDS011;38667;42.872;74.622;2022-11-22T07:35:12;31.00;;;19.02;;
52798;SDS011;38667;42.872;74.622;2022-11-22T07:37:38;26.63;;;17.90;;
52798;SDS011;38667;42.872;74.622;2022-11-22T07:40:07;29.27;;;17.60;;
52798;SDS011;38667;42.872;74.622;2022-11-22T07:42:34;28.77;;;19.08;;
52798;SDS011;38667;42.872;74.622;2022-11-22T07:45:00;36.20;;;20.65;;
52798;SDS011;38667;42.872;74.622;2022-11-22T07:47:27;32.10;;;20.05;;
52798;SDS011;38667;42.872;74.622;2022-11-22T07:49:53;30.38;;;20.00;;
52798;SDS011;38667;42.872;74.622;2022-11-22T07:52:19;34.72;;;22.10;;
52798;SDS011;38667;42.872;74.622;2022-11-22T07:54:46;32.90;;;21.48;;
52798;SDS011;38667;42.872;74.622;2022-11-22T07:57:14;31.95;;;22.25;;
52798;SDS011;38667;42.872;74.622;2022-11-22T07:59:40;36.00;;;22.55;;
52798;SDS011;38667;42.872;74.622;2022-11-22T08:02:08;35.72;;;22.73;;
52798;SDS011;38667;42.872;74.622;2022-11-22T08:04:35;39.08;;;22.45;;
52798;SDS011;38667;42.872;74.622;2022-11-22T08:07:02;38.17;;;23.67;;
52798;SDS011;38667;42.872;74.622;2022-11-22T08:09:28;36.80;;;22.95;;
52798;SDS011;38667;42.872;74.622;2022-11-22T08:11:54;34.90;;;20.25;;
52798;SDS011;38667;42.872;74.622;2022-11-22T08:14:22;33.40;;;20.30;;
52798;SDS011;38667;42.872;74.622;2022-11-22T08:16:49;33.75;;;19.73;;
52798;SDS011;38667;42.872;74.622;2022-11-22T08:19:15;32.00;;;20.83;;
52798;SDS011;38667;42.872;74.622;2022-11-22T08:21:41;35.70;;;21.00;;
52798;SDS011;38667;42.872;74.622;2022-11-22T08:24:08;34.13;;;19.60;;
52798;SDS011;38667;42.872;74.622;2022-11-22T08:26:34;32.65;;;20.02;;
52798;SDS011;38667;42.872;74.622;2022-11-22T08:29:02;30.85;;;19.15;;
52798;SDS011;38667;42.872;74.622;2022-11-22T08:31:31;31.55;;;18.90;;
52798;SDS011;38667;42.872;74.622;2022-11-22T08:33:57;27.42;;;18.00;;
52798;SDS011;38667;42.872;74.622;2022-11-22T08:36:23;28.90;;;17.80;;
52798;SDS011;38667;42.872;74.622;2022-11-22T08:38:50;26.75;;;18.02;;
52798;SDS011;38667;42.872;74.622;2022-11-22T08:41:17;28.15;;;17.98;;
52798;SDS011;38667;42.872;74.622;2022-11-22T08:43:43;26.70;;;17.85;;
52798;SDS011;38667;42.872;74.622;2022-11-22T08:46:09;28.42;;;17.10;;
52798;SDS011;38667;42.872;74.622;2022-11-22T08:48:37;26.77;;;16.77;;
52798;SDS011;38667;42.872;74.622;2022-11-22T08:51:04;28.52;;;18.23;;
52798;SDS011;38667;42.872;74.622;2022-11-22T08:53:32;27.67;;;18.58;;
52798;SDS011;38667;42.872;74.622;2022-11-22T08:56:00;28.75;;;18.65;;
52798;SDS011;38667;42.872;74.622;2022-11-22T08:58:28;29.08;;;19.10;;
52798;SDS011;38667;42.872;74.622;2022-11-22T09:00:54;30.30;;;19.05;;
52798;SDS011;38667;42.872;74.622;2022-11-22T09:03:21;28.00;;;18.65;;
52798;SDS011;38667;42.872;74.622;2022-11-22T09:05:49;28.27;;;18.05;;
52798;SDS011;38667;42.872;74.622;2022-11-22T09:08:15;31.92;;;19.83;;
52798;SDS011;38667;42.872;74.622;2022-11-22T09:10:41;28.50;;;18.40;;
52798;SDS011;38667;42.872;74.622;2022-11-22T09:13:07;27.83;;;19.77;;
52798;SDS011;38667;42.872;74.622;2022-11-22T09:15:34;28.60;;;17.98;;
52798;SDS011;38667;42.872;74.622;2022-11-22T09:18:00;32.67;;;19.85;;
52798;SDS011;38667;42.872;74.622;2022-11-22T09:20:27;30.75;;;19.83;;
52798;SDS011;38667;42.872;74.622;2022-11-22T09:22:55;36.97;;;22.45;;
52798;SDS011;38667;42.872;74.622;2022-11-22T09:25:21;32.63;;;21.35;;
52798;SDS011;38667;42.872;74.622;2022-11-22T09:27:48;36.25;;;21.95;;
52798;SDS011;38667;42.872;74.622;2022-11-22T09:30:14;39.55;;;21.88;;
52798;SDS011;38667;42.872;74.622;2022-11-22T09:32:41;35.78;;;21.67;;
52798;SDS011;38667;42.872;74.622;2022-11-22T09:35:08;33.05;;;20.23;;
52798;SDS011;38667;42.872;74.622;2022-11-22T09:37:34;33.00;;;20.23;;
52798;SDS011;38667;42.872;74.622;2022-11-22T09:40:02;32.55;;;21.02;;
52798;SDS011;38667;42.872;74.622;2022-11-22T09:42:32;32.55;;;19.98;;
52798;SDS011;38667;42.872;74.622;2022-11-22T09:51:08;34.45;;;20.92;;
52798;SDS011;38667;42.872;74.622;2022-11-22T09:53:37;36.00;;;22.65;;
52798;SDS011;38667;42.872;74.622;2022-11-22T09:56:10;35.33;;;22.50;;
52798;SDS011;38667;42.872;74.622;2022-11-22T09:58:40;41.78;;;26.75;;
52798;SDS011;38667;42.872;74.622;2022-11-22T10:01:10;42.42;;;25.23;;
52798;SDS011;38667;42.872;74.622;2022-11-22T10:03:42;37.53;;;21.95;;
52798;SDS011;38667;42.872;74.622;2022-11-22T10:06:13;33.67;;;20.55;;
52798;SDS011;38667;42.872;74.622;2022-11-22T10:08:47;28.75;;;18.38;;
52798;SDS011;38667;42.872;74.622;2022-11-22T10:11:24;35.85;;;19.75;;
52798;SDS011;38667;42.872;74.622;2022-11-22T10:13:59;29.45;;;18.75;;
52798;SDS011;38667;42.872;74.622;2022-11-22T10:16:29;31.05;;;19.58;;
52798;SDS011;38667;42.872;74.622;2022-11-22T10:18:59;27.25;;;17.65;;
52798;SDS011;38667;42.872;74.622;2022-11-22T10:21:31;27.38;;;17.10;;
52798;SDS011;38667;42.872;74.622;2022-11-22T10:23:57;30.13;;;17.73;;
52798;SDS011;38667;42.872;74.622;2022-11-22T10:26:26;31.73;;;17.73;;
52798;SDS011;38667;42.872;74.622;2022-11-22T10:28:57;31.70;;;18.80;;
52798;SDS011;38667;42.872;74.622;2022-11-22T10:31:34;23.35;;;14.15;;
52798;SDS011;38667;42.872;74.622;2022-11-22T10:34:08;26.23;;;16.13;;
52798;SDS011;38667;42.872;74.622;2022-11-22T10:36:42;24.17;;;15.35;;
52798;SDS011;38667;42.872;74.622;2022-11-22T10:39:21;24.25;;;15.10;;
52798;SDS011;38667;42.872;74.622;2022-11-22T10:42:02;23.58;;;14.68;;
52798;SDS011;38667;42.872;74.622;2022-11-22T10:44:48;25.92;;;15.93;;
52798;SDS011;38667;42.872;74.622;2022-11-22T10:47:22;25.17;;;15.82;;
52798;SDS011;38667;42.872;74.622;2022-11-22T10:50:04;26.92;;;16.65;;
52798;SDS011;38667;42.872;74.622;2022-11-22T10:52:40;27.42;;;17.65;;
52798;SDS011;38667;42.872;74.622;2022-11-22T10:55:17;27.48;;;16.67;;
52798;SDS011;38667;42.872;74.622;2022-11-22T10:58:01;28.48;;;19.52;;
52798;SDS011;38667;42.872;74.622;2022-11-22T11:00:35;38.30;;;22.20;;
52798;SDS011;38667;42.872;74.622;2022-11-22T11:03:07;26.08;;;16.75;;
52798;SDS011;38667;42.872;74.622;2022-11-22T11:05:50;29.65;;;16.75;;
52798;SDS011;38667;42.872;74.622;2022-11-22T11:08:20;29.52;;;16.30;;
52798;SDS011;38667;42.872;74.622;2022-11-22T11:10:53;23.67;;;14.65;;
52798;SDS011;38667;42.872;74.622;2022-11-22T11:13:23;21.13;;;12.18;;
52798;SDS011;38667;42.872;74.622;2022-11-22T11:15:53;19.42;;;11.70;;
52798;SDS011;38667;42.872;74.622;2022-11-22T11:18:23;22.17;;;13.63;;
52798;SDS011;38667;42.872;74.622;2022-11-22T11:20:55;21.88;;;13.10;;
52798;SDS011;38667;42.872;74.622;2022-11-22T11:23:22;17.13;;;11.07;;
52798;SDS011;38667;42.872;74.622;2022-11-22T11:25:48;21.48;;;12.30;;
52798;SDS011;38667;42.872;74.622;2022-11-22T11:28:16;26.90;;;15.60;;
52798;SDS011;38667;42.872;74.622;2022-11-22T11:30:46;26.98;;;15.68;;
52798;SDS011;38667;42.872;74.622;2022-11-22T11:36:02;27.63;;;16.85;;
52798;SDS011;38667;42.872;74.622;2022-11-22T11:38:33;28.17;;;17.37;;
52798;SDS011;38667;42.872;74.622;2022-11-22T11:41:17;31.70;;;19.80;;
52798;SDS011;38667;42.872;74.622;2022-11-22T11:43:47;35.97;;;21.20;;
52798;SDS011;38667;42.872;74.622;2022-11-22T11:46:16;45.67;;;25.60;;
52798;SDS011;38667;42.872;74.622;2022-11-22T11:48:43;50.27;;;29.37;;
52798;SDS011;38667;42.872;74.622;2022-11-22T11:51:12;46.80;;;31.02;;
52798;SDS011;38667;42.872;74.622;2022-11-22T11:53:41;44.40;;;27.60;;
52798;SDS011;38667;42.872;74.622;2022-11-22T11:56:26;53.60;;;32.75;;
52798;SDS011;38667;42.872;74.622;2022-11-22T11:59:14;45.67;;;28.03;;
52798;SDS011;38667;42.872;74.622;2022-11-22T12:01:47;40.40;;;23.85;;
52798;SDS011;38667;42.872;74.622;2022-11-22T12:04:22;45.33;;;25.73;;
52798;SDS011;38667;42.872;74.622;2022-11-22T12:06:54;64.67;;;38.97;;
52798;SDS011;38667;42.872;74.622;2022-11-22T12:09:29;72.53;;;45.10;;
52798;SDS011;38667;42.872;74.622;2022-11-22T12:11:57;43.92;;;28.40;;
52798;SDS011;38667;42.872;74.622;2022-11-22T12:14:35;65.25;;;36.05;;
52798;SDS011;38667;42.872;74.622;2022-11-22T12:17:09;28.77;;;18.73;;
52798;SDS011;38667;42.872;74.622;2022-11-22T12:19:44;24.15;;;16.38;;
52798;SDS011;38667;42.872;74.622;2022-11-22T12:22:20;27.55;;;18.85;;
52798;SDS011;38667;42.872;74.622;2022-11-22T12:24:53;27.47;;;17.53;;
52798;SDS011;38667;42.872;74.622;2022-11-22T12:27:21;45.88;;;25.13;;
52798;SDS011;38667;42.872;74.622;2022-11-22T12:29:48;48.88;;;30.27;;
52798;SDS011;38667;42.872;74.622;2022-11-22T12:32:17;51.40;;;30.73;;
52798;SDS011;38667;42.872;74.622;2022-11-22T12:34:49;36.35;;;23.92;;
52798;SDS011;38667;42.872;74.622;2022-11-22T12:37:20;45.33;;;27.83;;
52798;SDS011;38667;42.872;74.622;2022-11-22T12:39:52;41.25;;;23.13;;
52798;SDS011;38667;42.872;74.622;2022-11-22T12:42:21;66.70;;;36.67;;
52798;SDS011;38667;42.872;74.622;2022-11-22T12:44:55;63.13;;;35.60;;
52798;SDS011;38667;42.872;74.622;2022-11-22T12:47:29;56.05;;;31.23;;
52798;SDS011;38667;42.872;74.622;2022-11-22T12:50:01;59.58;;;36.75;;
52798;SDS011;38667;42.872;74.622;2022-11-22T12:52:33;59.47;;;35.38;;
52798;SDS011;38667;42.872;74.622;2022-11-22T12:55:08;55.65;;;30.38;;
52798;SDS011;38667;42.872;74.622;2022-11-22T12:57:42;58.63;;;32.83;;
52798;SDS011;38667;42.872;74.622;2022-11-22T13:00:14;55.92;;;31.85;;
52798;SDS011;38667;42.872;74.622;2022-11-22T13:02:44;70.03;;;38.03;;
52798;SDS011;38667;42.872;74.622;2022-11-22T13:05:20;76.83;;;40.90;;
52798;SDS011;38667;42.872;74.622;2022-11-22T13:07:50;81.32;;;43.47;;
52798;SDS011;38667;42.872;74.622;2022-11-22T13:10:27;89.63;;;47.97;;
52798;SDS011;38667;42.872;74.622;2022-11-22T13:12:58;112.38;;;56.35;;
52798;SDS011;38667;42.872;74.622;2022-11-22T13:15:27;100.38;;;53.95;;
52798;SDS011;38667;42.872;74.622;2022-11-22T13:17:57;98.47;;;55.20;;
52798;SDS011;38667;42.872;74.622;2022-11-22T13:20:24;86.15;;;48.63;;
52798;SDS011;38667;42.872;74.622;2022-11-22T13:22:56;93.57;;;50.30;;
52798;SDS011;38667;42.872;74.622;2022-11-22T13:25:40;78.00;;;42.90;;
52798;SDS011;38667;42.872;74.622;2022-11-22T13:28:12;83.17;;;45.63;;
52798;SDS011;38667;42.872;74.622;2022-11-22T13:30:41;74.85;;;43.50;;
52798;SDS011;38667;42.872;74.622;2022-11-22T13:33:30;78.50;;;44.70;;
52798;SDS011;38667;42.872;74.622;2022-11-22T13:39:02;65.32;;;37.03;;
52798;SDS011;38667;42.872;74.622;2022-11-22T13:41:35;61.47;;;33.23;;
52798;SDS011;38667;42.872;74.622;2022-11-22T13:46:58;51.83;;;29.77;;
52798;SDS011;38667;42.872;74.622;2022-11-22T13:49:30;52.97;;;29.45;;
52798;SDS011;38667;42.872;74.622;2022-11-22T13:52:01;47.38;;;26.27;;
52798;SDS011;38667;42.872;74.622;2022-11-22T13:57:36;38.53;;;20.37;;
52798;SDS011;38667;42.872;74.622;2022-11-22T14:03:19;39.93;;;21.07;;
52798;SDS011;38667;42.872;74.622;2022-11-22T14:05:58;41.67;;;22.67;;
52798;SDS011;38667;42.872;74.622;2022-11-22T14:08:38;52.63;;;26.80;;
52798;SDS011;38667;42.872;74.622;2022-11-22T14:11:09;36.67;;;19.40;;
52798;SDS011;38667;42.872;74.622;2022-11-22T14:13:48;40.50;;;24.40;;
52798;SDS011;38667;42.872;74.622;2022-11-22T14:16:32;37.95;;;20.35;;
52798;SDS011;38667;42.872;74.622;2022-11-22T14:19:17;42.60;;;24.07;;
52798;SDS011;38667;42.872;74.622;2022-11-22T14:22:00;44.23;;;24.43;;
52798;SDS011;38667;42.872;74.622;2022-11-22T14:24:44;25.33;;;14.73;;
52798;SDS011;38667;42.872;74.622;2022-11-22T14:27:27;29.00;;;16.27;;
52798;SDS011;38667;42.872;74.622;2022-11-22T14:30:06;29.23;;;17.07;;
52798;SDS011;38667;42.872;74.622;2022-11-22T14:32:47;36.83;;;21.23;;
52798;SDS011;38667;42.872;74.622;2022-11-22T14:35:22;39.50;;;22.17;;
52798;SDS011;38667;42.872;74.622;2022-11-22T14:37:59;42.83;;;22.57;;
52798;SDS011;38667;42.872;74.622;2022-11-22T14:40:49;40.30;;;22.00;;
52798;SDS011;38667;42.872;74.622;2022-11-22T14:43:19;46.63;;;22.63;;
52798;SDS011;38667;42.872;74.622;2022-11-22T14:45:51;46.00;;;22.00;;
52798;SDS011;38667;42.872;74.622;2022-11-22T14:48:19;41.47;;;22.73;;
52798;SDS011;38667;42.872;74.622;2022-11-22T14:50:50;42.40;;;23.63;;
52798;SDS011;38667;42.872;74.622;2022-11-22T14:53:24;40.47;;;20.43;;